createdAt,value
2018-12-10T00:01:03.525Z,4.70
2018-12-10T00:03:35.492Z,4.70
2018-12-10T00:06:03.718Z,4.70
2018-12-10T00:08:31.853Z,4.70
2018-12-10T00:10:59.995Z,4.60
2018-12-10T00:13:28.150Z,4.60
2018-12-10T00:15:56.245Z,4.60
2018-12-10T00:18:24.379Z,4.70
2018-12-10T00:20:52.535Z,4.70
2018-12-10T00:23:20.630Z,4.70
2018-12-10T00:25:48.731Z,4.70
2018-12-10T00:28:16.854Z,4.70
2018-12-10T00:30:44.972Z,4.70
2018-12-10T00:33:13.134Z,4.70
2018-12-10T00:35:41.226Z,4.70
2018-12-10T00:38:09.329Z,4.80
2018-12-10T00:40:37.482Z,4.80
2018-12-10T00:43:05.633Z,4.90
2018-12-10T00:45:33.733Z,5.00
2018-12-10T00:48:01.854Z,5.00
2018-12-10T00:50:29.983Z,5.10
2018-12-10T00:52:58.104Z,5.10
2018-12-10T00:55:26.254Z,5.10
2018-12-10T00:57:54.350Z,5.00
2018-12-10T01:00:22.442Z,5.00
2018-12-10T01:02:50.581Z,5.00
2018-12-10T01:05:18.681Z,5.00
2018-12-10T01:07:46.818Z,5.00
2018-12-10T01:10:15.005Z,4.90
2018-12-10T01:12:43.149Z,4.80
2018-12-10T01:15:11.285Z,4.70
2018-12-10T01:17:39.413Z,4.70
2018-12-10T01:20:07.651Z,4.70
2018-12-10T01:22:35.783Z,4.70
2018-12-10T01:25:04.079Z,4.70
2018-12-10T01:27:32.329Z,4.70
2018-12-10T01:30:00.439Z,4.80
2018-12-10T01:32:28.565Z,4.80
2018-12-10T01:34:56.703Z,4.80
2018-12-10T01:37:24.820Z,4.80
2018-12-10T01:39:52.990Z,4.70
2018-12-10T01:42:21.154Z,4.70
2018-12-10T01:44:49.268Z,4.60
2018-12-10T01:47:17.387Z,4.60
2018-12-10T01:49:45.508Z,4.50
2018-12-10T01:52:13.658Z,4.50
2018-12-10T01:54:41.789Z,4.50
2018-12-10T01:57:09.950Z,4.40
2018-12-10T01:59:38.052Z,4.40
2018-12-10T02:02:06.186Z,4.50
2018-12-10T02:04:34.305Z,4.50
2018-12-10T02:07:02.402Z,4.60
2018-12-10T02:09:30.632Z,4.60
2018-12-10T02:11:58.766Z,4.50
2018-12-10T02:14:26.890Z,4.50
2018-12-10T02:16:55.118Z,4.50
2018-12-10T02:19:23.300Z,4.50
2018-12-10T02:21:51.516Z,4.50
2018-12-10T02:24:19.659Z,4.50
2018-12-10T02:26:47.881Z,4.50
2018-12-10T02:29:16.008Z,4.40
2018-12-10T02:31:44.104Z,4.30
2018-12-10T02:34:12.251Z,4.30
2018-12-10T02:36:40.365Z,4.30
2018-12-10T02:39:08.625Z,4.30
2018-12-10T02:41:36.722Z,4.30
2018-12-10T02:44:04.819Z,4.30
2018-12-10T02:46:32.969Z,4.40
2018-12-10T02:49:01.079Z,4.50
2018-12-10T02:51:29.212Z,4.50
2018-12-10T02:53:57.334Z,4.60
2018-12-10T02:56:25.472Z,4.60
2018-12-10T02:58:53.706Z,4.50
2018-12-10T03:01:21.824Z,4.50
2018-12-10T03:03:50.049Z,4.40
2018-12-10T03:06:18.150Z,4.40
2018-12-10T03:08:46.347Z,4.30
2018-12-10T03:11:14.494Z,4.30
2018-12-10T03:13:42.614Z,4.30
2018-12-10T03:16:10.856Z,4.40
2018-12-10T03:18:38.987Z,4.50
2018-12-10T03:21:07.118Z,4.60
2018-12-10T03:23:35.256Z,4.60
2018-12-10T03:26:03.368Z,4.60
2018-12-10T03:28:31.513Z,4.50
2018-12-10T03:30:59.659Z,4.50
2018-12-10T03:33:27.828Z,4.40
2018-12-10T03:35:55.944Z,4.40
2018-12-10T03:38:24.165Z,4.40
2018-12-10T03:40:52.287Z,4.40
2018-12-10T03:43:20.429Z,4.30
2018-12-10T03:45:48.579Z,4.20
2018-12-10T03:48:16.706Z,4.20
2018-12-10T03:50:44.844Z,4.20
2018-12-10T03:53:12.941Z,4.10
2018-12-10T03:55:41.061Z,4.10
2018-12-10T03:58:09.209Z,4.00
2018-12-10T04:00:37.425Z,4.00
2018-12-10T04:03:05.527Z,3.90
2018-12-10T04:05:33.655Z,3.80
2018-12-10T04:08:01.797Z,3.80
2018-12-10T04:10:29.935Z,3.90
2018-12-10T04:12:58.285Z,3.90
2018-12-10T04:15:26.592Z,3.90
2018-12-10T04:17:54.694Z,4.00
2018-12-10T04:20:22.827Z,3.90
2018-12-10T04:22:50.925Z,3.90
2018-12-10T04:25:19.082Z,3.90
2018-12-10T04:27:47.191Z,3.90
2018-12-10T04:30:15.320Z,3.90
2018-12-10T04:32:43.450Z,3.90
2018-12-10T04:35:11.583Z,3.90
2018-12-10T04:37:39.718Z,3.90
2018-12-10T04:40:07.827Z,3.80
2018-12-10T04:42:35.999Z,3.80
2018-12-10T04:45:05.303Z,3.80
2018-12-10T04:47:33.435Z,3.70
2018-12-10T04:50:01.579Z,3.70
2018-12-10T04:52:29.695Z,3.70
2018-12-10T04:54:57.841Z,3.70
2018-12-10T04:57:26.068Z,3.70
2018-12-10T04:59:54.247Z,3.60
2018-12-10T05:02:22.397Z,3.60
2018-12-10T05:04:50.534Z,3.60
2018-12-10T05:07:18.685Z,3.60
2018-12-10T05:09:47.406Z,3.60
2018-12-10T05:12:15.531Z,3.60
2018-12-10T05:14:43.755Z,3.60
2018-12-10T05:17:11.914Z,3.60
2018-12-10T05:19:40.041Z,3.60
2018-12-10T05:22:08.165Z,3.60
2018-12-10T05:24:36.290Z,3.70
2018-12-10T05:27:04.414Z,3.80
2018-12-10T05:29:32.588Z,3.80
2018-12-10T05:32:00.694Z,3.80
2018-12-10T05:34:28.818Z,3.70
2018-12-10T05:36:56.923Z,3.80
2018-12-10T05:39:25.087Z,3.90
2018-12-10T05:41:53.187Z,4.00
2018-12-10T05:44:21.314Z,4.00
2018-12-10T05:46:49.472Z,4.10
2018-12-10T05:49:17.596Z,4.10
2018-12-10T05:51:45.719Z,4.00
2018-12-10T05:54:13.826Z,4.10
2018-12-10T05:56:42.081Z,4.20
2018-12-10T05:59:10.173Z,4.30
2018-12-10T06:01:38.322Z,4.30
2018-12-10T06:04:06.568Z,4.30
2018-12-10T06:06:34.700Z,4.30
2018-12-10T06:09:03.068Z,4.10
2018-12-10T06:11:31.218Z,4.00
2018-12-10T06:13:59.357Z,4.00
2018-12-10T06:16:27.487Z,3.90
2018-12-10T06:18:55.735Z,3.90
2018-12-10T06:21:23.828Z,3.90
2018-12-10T06:23:51.989Z,3.90
2018-12-10T06:26:20.126Z,3.90
2018-12-10T06:28:48.236Z,3.80
2018-12-10T06:31:16.379Z,3.80
2018-12-10T06:33:44.525Z,3.80
2018-12-10T06:36:12.677Z,3.80
2018-12-10T06:38:40.821Z,3.80
2018-12-10T06:41:08.922Z,3.80
2018-12-10T06:43:37.068Z,3.90
2018-12-10T06:46:05.183Z,3.90
2018-12-10T06:48:33.303Z,3.90
2018-12-10T06:51:01.437Z,3.90
2018-12-10T06:53:29.568Z,3.90
2018-12-10T06:55:57.675Z,3.80
2018-12-10T06:58:25.802Z,3.90
2018-12-10T07:00:53.938Z,3.80
2018-12-10T07:03:22.066Z,3.80
2018-12-10T07:05:50.232Z,3.90
2018-12-10T07:08:18.385Z,3.80
2018-12-10T07:10:46.504Z,3.90
2018-12-10T07:13:14.611Z,3.90
2018-12-10T07:15:42.758Z,3.90
2018-12-10T07:18:10.868Z,3.80
2018-12-10T07:20:38.993Z,3.70
2018-12-10T07:23:07.094Z,3.60
2018-12-10T07:25:35.245Z,3.60
2018-12-10T07:28:04.934Z,3.50
2018-12-10T07:30:41.262Z,3.50
2018-12-10T07:33:03.413Z,3.50
2018-12-10T07:35:31.544Z,3.50
2018-12-10T07:37:59.678Z,3.60
2018-12-10T07:40:27.857Z,3.60
2018-12-10T07:42:55.962Z,3.50
2018-12-10T07:45:24.077Z,3.50
2018-12-10T07:47:52.216Z,3.50
2018-12-10T07:50:20.355Z,3.50
2018-12-10T07:52:48.561Z,3.50
2018-12-10T07:55:16.710Z,3.50
2018-12-10T07:57:44.870Z,3.60
2018-12-10T08:00:13.199Z,3.60
2018-12-10T08:02:41.468Z,3.60
2018-12-10T08:05:12.422Z,3.50
2018-12-10T08:07:39.738Z,3.40
2018-12-10T08:10:08.294Z,3.40
2018-12-10T08:12:36.425Z,3.40
2018-12-10T08:15:06.142Z,3.40
2018-12-10T08:17:35.350Z,3.40
2018-12-10T08:20:04.078Z,3.40
2018-12-10T08:22:32.191Z,3.40
2018-12-10T08:25:00.454Z,3.50
2018-12-10T08:27:28.598Z,3.50
2018-12-10T08:29:56.730Z,3.60
2018-12-10T08:32:25.040Z,3.70
2018-12-10T08:34:53.132Z,3.80
2018-12-10T08:37:21.286Z,3.90
2018-12-10T08:39:49.492Z,3.80
2018-12-10T08:42:17.618Z,3.90
2018-12-10T08:44:45.765Z,4.00
2018-12-10T08:47:16.258Z,4.00
2018-12-10T08:49:44.146Z,4.10
2018-12-10T08:52:12.346Z,4.20
2018-12-10T08:54:40.505Z,4.20
2018-12-10T08:57:08.699Z,4.20
2018-12-10T08:59:36.929Z,4.20
2018-12-10T09:02:05.271Z,4.10
2018-12-10T09:04:33.431Z,4.10
2018-12-10T09:07:01.642Z,4.10
2018-12-10T09:09:29.746Z,4.20
2018-12-10T09:11:57.873Z,4.20
2018-12-10T09:14:26.111Z,4.20
2018-12-10T09:16:54.206Z,4.30
2018-12-10T09:19:22.325Z,4.30
2018-12-10T09:21:50.572Z,4.30
2018-12-10T09:24:18.696Z,4.40
2018-12-10T09:26:46.819Z,4.50
2018-12-10T09:29:15.048Z,4.70
2018-12-10T09:31:43.162Z,4.80
2018-12-10T09:34:11.287Z,4.80
2018-12-10T09:36:39.446Z,4.80
2018-12-10T09:39:07.777Z,4.80
2018-12-10T09:41:35.917Z,4.70
2018-12-10T09:44:04.065Z,4.50
2018-12-10T09:46:32.212Z,4.40
2018-12-10T09:49:01.863Z,4.40
2018-12-10T09:51:30.162Z,4.40
2018-12-10T09:53:58.515Z,4.40
2018-12-10T09:56:26.658Z,4.40
2018-12-10T09:58:54.830Z,4.60
2018-12-10T10:01:22.991Z,4.80
2018-12-10T10:03:51.250Z,4.90
2018-12-10T10:06:19.383Z,4.80
2018-12-10T10:08:49.491Z,4.70
2018-12-10T10:11:17.715Z,4.70
2018-12-10T10:13:45.835Z,4.70
2018-12-10T10:16:13.978Z,4.90
2018-12-10T10:18:42.132Z,5.10
2018-12-10T10:21:11.420Z,5.30
2018-12-10T10:23:39.963Z,5.40
2018-12-10T10:26:08.085Z,5.40
2018-12-10T10:28:36.213Z,5.30
2018-12-10T10:31:04.368Z,5.20
2018-12-10T10:33:32.737Z,5.20
2018-12-10T10:36:01.007Z,5.10
2018-12-10T10:38:29.118Z,5.00
2018-12-10T10:40:58.038Z,4.80
2018-12-10T10:43:26.266Z,4.70
2018-12-10T10:45:54.580Z,4.70
2018-12-10T10:48:22.999Z,4.70
2018-12-10T10:50:51.173Z,4.80
2018-12-10T10:53:19.321Z,4.90
2018-12-10T10:55:47.421Z,5.00
2018-12-10T10:58:15.648Z,5.00
2018-12-10T11:00:49.433Z,5.00
2018-12-10T11:03:23.447Z,4.90
2018-12-10T11:05:51.577Z,5.00
2018-12-10T11:08:19.746Z,5.00
2018-12-10T11:10:47.939Z,5.00
2018-12-10T11:13:16.075Z,5.00
2018-12-10T11:15:44.210Z,5.10
2018-12-10T11:18:12.333Z,5.20
2018-12-10T11:20:40.480Z,5.40
2018-12-10T11:23:08.608Z,5.40
2018-12-10T11:25:36.774Z,5.50
2018-12-10T11:28:04.933Z,5.60
2018-12-10T11:30:33.388Z,5.60
2018-12-10T11:33:01.555Z,5.70
2018-12-10T11:35:29.694Z,5.70
2018-12-10T11:37:57.840Z,5.60
2018-12-10T11:40:25.941Z,5.70
2018-12-10T11:42:54.114Z,5.80
2018-12-10T11:45:22.390Z,5.80
2018-12-10T11:47:50.607Z,5.90
2018-12-10T11:50:18.925Z,6.10
2018-12-10T11:52:47.181Z,6.10
2018-12-10T11:55:15.919Z,6.10
2018-12-10T11:57:44.031Z,6.00
2018-12-10T12:00:12.365Z,5.90
2018-12-10T12:02:40.506Z,5.70
2018-12-10T12:05:08.632Z,5.60
2018-12-10T12:07:36.755Z,5.60
2018-12-10T12:10:06.095Z,5.50
2018-12-10T12:12:34.208Z,5.40
2018-12-10T12:15:02.317Z,5.30
2018-12-10T12:17:30.441Z,5.40
2018-12-10T12:19:58.657Z,5.40
2018-12-10T12:22:26.802Z,5.40
2018-12-10T12:24:54.935Z,5.40
2018-12-10T12:27:23.925Z,5.50
2018-12-10T12:29:52.214Z,5.40
2018-12-10T12:32:20.353Z,5.40
2018-12-10T12:34:48.500Z,5.40
2018-12-10T12:37:16.630Z,5.40
2018-12-10T12:39:44.781Z,5.40
2018-12-10T12:42:12.885Z,5.50
2018-12-10T12:44:41.044Z,5.60
2018-12-10T12:47:09.146Z,5.70
2018-12-10T12:49:37.268Z,5.80
2018-12-10T12:52:05.404Z,5.90
2018-12-10T12:54:33.540Z,5.90
2018-12-10T12:57:01.662Z,5.80
2018-12-10T12:59:29.797Z,5.80
2018-12-10T13:01:58.027Z,5.80
2018-12-10T13:04:28.151Z,5.80
2018-12-10T13:06:56.252Z,5.90
2018-12-10T13:09:24.386Z,6.00
2018-12-10T13:11:52.490Z,6.00
2018-12-10T13:14:20.641Z,5.90
2018-12-10T13:16:49.669Z,5.90
2018-12-10T13:19:18.172Z,5.80
2018-12-10T13:21:46.286Z,5.80
2018-12-10T13:24:14.394Z,5.70
2018-12-10T13:26:43.111Z,5.60
2018-12-10T13:29:11.453Z,5.60
2018-12-10T13:31:39.706Z,5.70
2018-12-10T13:34:07.813Z,5.80
2018-12-10T13:36:35.967Z,5.70
2018-12-10T13:39:05.950Z,5.60
2018-12-10T13:41:34.086Z,5.60
2018-12-10T13:44:02.217Z,5.60
2018-12-10T13:46:30.323Z,5.70
2018-12-10T13:48:58.486Z,5.70
2018-12-10T13:51:26.580Z,5.80
2018-12-10T13:53:54.740Z,5.80
2018-12-10T13:56:22.863Z,5.80
2018-12-10T13:58:51.121Z,5.80
2018-12-10T14:01:19.298Z,5.70
2018-12-10T14:03:47.916Z,5.70
2018-12-10T14:06:16.162Z,5.70
2018-12-10T14:08:44.286Z,5.70
2018-12-10T14:11:12.428Z,5.60
2018-12-10T14:13:40.531Z,5.60
2018-12-10T14:16:09.262Z,5.50
2018-12-10T14:18:37.388Z,5.50
2018-12-10T14:21:05.496Z,5.50
2018-12-10T14:23:33.672Z,5.50
2018-12-10T14:26:01.799Z,5.40
2018-12-10T14:28:29.938Z,5.30
2018-12-10T14:30:58.784Z,5.20
2018-12-10T14:33:27.043Z,5.20
2018-12-10T14:35:55.169Z,5.10
2018-12-10T14:38:23.270Z,5.10
2018-12-10T14:40:51.418Z,5.00
2018-12-10T14:43:19.554Z,4.90
2018-12-10T14:45:47.913Z,4.90
2018-12-10T14:48:16.764Z,4.80
2018-12-10T14:50:44.870Z,4.80
2018-12-10T14:53:12.997Z,4.90
2018-12-10T14:55:41.130Z,4.90
2018-12-10T14:58:09.252Z,4.90
2018-12-10T15:00:37.382Z,4.90
2018-12-10T15:03:05.508Z,4.90
2018-12-10T15:05:33.754Z,4.90
2018-12-10T15:08:01.880Z,4.90
2018-12-10T15:10:29.981Z,4.80
2018-12-10T15:12:58.110Z,4.80
2018-12-10T15:15:26.235Z,4.80
2018-12-10T15:17:54.373Z,4.70
2018-12-10T15:20:22.512Z,4.60
2018-12-10T15:22:50.639Z,4.70
2018-12-10T15:25:18.769Z,4.70
2018-12-10T15:27:46.879Z,4.80
2018-12-10T15:30:15.034Z,4.80
2018-12-10T15:32:43.160Z,4.80
2018-12-10T15:35:11.495Z,4.80
2018-12-10T15:37:39.623Z,4.70
2018-12-10T15:40:07.870Z,4.60
2018-12-10T15:42:36.001Z,4.60
2018-12-10T15:45:04.706Z,4.50
2018-12-10T15:47:32.867Z,4.50
2018-12-10T15:50:01.028Z,4.60
2018-12-10T15:52:29.155Z,4.60
2018-12-10T15:54:57.300Z,4.60
2018-12-10T15:57:25.440Z,4.70
2018-12-10T15:59:53.698Z,4.70
2018-12-10T16:02:21.816Z,4.80
2018-12-10T16:04:50.159Z,4.80
2018-12-10T16:07:18.389Z,4.90
2018-12-10T16:09:46.627Z,4.80
2018-12-10T16:12:14.739Z,4.80
2018-12-10T16:14:42.857Z,4.80
2018-12-10T16:17:11.090Z,4.80
2018-12-10T16:19:39.210Z,4.80
2018-12-10T16:22:07.331Z,4.70
2018-12-10T16:24:35.454Z,4.70
2018-12-10T16:27:03.612Z,4.60
2018-12-10T16:29:31.765Z,4.50
2018-12-10T16:31:59.865Z,4.40
2018-12-10T16:34:28.003Z,4.40
2018-12-10T16:36:56.159Z,4.40
2018-12-10T16:39:24.410Z,4.40
2018-12-10T16:41:52.551Z,4.40
2018-12-10T16:44:21.337Z,4.40
2018-12-10T16:46:50.427Z,4.50
2018-12-10T16:49:18.524Z,4.50
2018-12-10T16:51:46.697Z,4.50
2018-12-10T16:54:14.912Z,4.40
2018-12-10T16:56:43.941Z,4.30
2018-12-10T16:59:12.076Z,4.30
2018-12-10T17:01:40.239Z,4.20
2018-12-10T17:04:08.395Z,4.20
2018-12-10T17:06:36.550Z,4.10
2018-12-10T17:09:09.137Z,4.20
2018-12-10T17:11:37.305Z,4.20
2018-12-10T17:14:05.597Z,4.20
2018-12-10T17:16:33.746Z,4.20
2018-12-10T17:19:01.934Z,4.20
2018-12-10T17:21:30.281Z,4.20
2018-12-10T17:23:58.418Z,4.10
2018-12-10T17:26:26.555Z,4.10
2018-12-10T17:28:54.812Z,4.00
2018-12-10T17:31:23.930Z,4.00
2018-12-10T17:33:52.200Z,4.00
2018-12-10T17:36:20.356Z,4.00
2018-12-10T17:38:48.472Z,4.00
2018-12-10T17:41:16.810Z,4.10
2018-12-10T17:43:44.921Z,4.10
2018-12-10T17:46:13.502Z,4.20
2018-12-10T17:48:41.638Z,4.20
2018-12-10T17:51:09.739Z,4.20
2018-12-10T17:53:38.020Z,4.20
2018-12-10T17:56:06.166Z,4.10
2018-12-10T17:58:34.307Z,4.10
2018-12-10T18:01:02.442Z,4.00
2018-12-10T18:03:30.583Z,4.00
2018-12-10T18:05:58.760Z,4.00
2018-12-10T18:08:26.901Z,4.10
2018-12-10T18:10:55.049Z,4.10
2018-12-10T18:13:23.197Z,4.10
2018-12-10T18:15:51.425Z,4.00
2018-12-10T18:18:19.582Z,3.90
2018-12-10T18:20:47.723Z,3.90
2018-12-10T18:23:16.000Z,3.90
2018-12-10T18:25:44.107Z,4.00
2018-12-10T18:28:12.234Z,4.00
2018-12-10T18:30:40.368Z,4.00
2018-12-10T18:33:08.475Z,4.00
2018-12-10T18:35:36.627Z,4.00
2018-12-10T18:38:04.767Z,3.90
2018-12-10T18:40:32.904Z,3.80
2018-12-10T18:43:01.026Z,3.80
2018-12-10T18:45:29.300Z,3.80
2018-12-10T18:47:57.461Z,3.80
2018-12-10T18:50:25.565Z,3.80
2018-12-10T18:52:53.802Z,3.90
2018-12-10T18:55:21.934Z,3.90
2018-12-10T18:57:50.042Z,3.90
2018-12-10T19:00:18.205Z,3.90
2018-12-10T19:02:46.330Z,4.00
2018-12-10T19:05:16.054Z,4.00
2018-12-10T19:07:44.321Z,4.10
2018-12-10T19:10:12.524Z,4.10
2018-12-10T19:12:41.617Z,4.10
2018-12-10T19:15:10.135Z,4.10
2018-12-10T19:17:38.282Z,4.10
2018-12-10T19:20:07.122Z,4.20
2018-12-10T19:22:35.258Z,4.20
2018-12-10T19:25:03.792Z,4.20
2018-12-10T19:27:32.181Z,4.20
2018-12-10T19:30:00.353Z,4.20
2018-12-10T19:32:28.588Z,4.20
2018-12-10T19:34:56.853Z,4.10
2018-12-10T19:37:25.142Z,4.10
2018-12-10T19:39:53.344Z,4.20
2018-12-10T19:42:21.469Z,4.10
2018-12-10T19:44:49.804Z,4.20
2018-12-10T19:47:19.149Z,4.30
2018-12-10T19:49:47.758Z,4.40
2018-12-10T19:52:16.153Z,4.40
2018-12-10T19:54:44.291Z,4.50
2018-12-10T19:57:12.397Z,4.50
2018-12-10T19:59:40.757Z,4.50
2018-12-10T20:02:09.065Z,4.40
2018-12-10T20:04:37.213Z,4.40
2018-12-10T20:07:06.971Z,4.30
2018-12-10T20:09:35.360Z,4.40
2018-12-10T20:12:03.824Z,4.50
2018-12-10T20:14:32.939Z,4.50
2018-12-10T20:17:01.169Z,4.50
2018-12-10T20:19:29.317Z,4.40
2018-12-10T20:21:57.497Z,4.30
2018-12-10T20:24:25.682Z,4.20
2018-12-10T20:26:53.880Z,4.20
2018-12-10T20:29:22.211Z,4.10
2018-12-10T20:31:50.460Z,4.10
2018-12-10T20:34:19.670Z,4.20
2018-12-10T20:36:48.157Z,4.20
2018-12-10T20:39:16.943Z,4.20
2018-12-10T20:41:45.074Z,4.20
2018-12-10T20:44:13.431Z,4.10
2018-12-10T20:46:41.802Z,4.10
2018-12-10T20:49:09.968Z,4.10
2018-12-10T20:51:38.090Z,4.00
2018-12-10T20:54:06.232Z,4.00
2018-12-10T20:56:34.457Z,4.00
2018-12-10T20:59:02.754Z,4.10
2018-12-10T21:01:30.951Z,4.20
2018-12-10T21:03:59.095Z,4.10
2018-12-10T21:06:32.994Z,4.10
2018-12-10T21:09:01.133Z,4.10
2018-12-10T21:11:29.279Z,4.10
2018-12-10T21:13:57.409Z,4.10
2018-12-10T21:16:25.537Z,4.10
2018-12-10T21:18:53.734Z,4.10
2018-12-10T21:21:21.858Z,4.20
2018-12-10T21:23:49.971Z,4.30
2018-12-10T21:26:18.097Z,4.30
2018-12-10T21:28:46.359Z,4.40
2018-12-10T21:31:14.493Z,4.40
2018-12-10T21:33:42.619Z,4.40
2018-12-10T21:36:10.764Z,4.40
2018-12-10T21:38:38.926Z,4.40
2018-12-10T21:41:07.067Z,4.40
2018-12-10T21:43:35.216Z,4.40
2018-12-10T21:46:03.448Z,4.40
2018-12-10T21:48:31.593Z,4.40
2018-12-10T21:50:59.727Z,4.30
2018-12-10T21:53:27.861Z,4.30
2018-12-10T21:55:56.879Z,4.20
2018-12-10T21:58:25.024Z,4.20
2018-12-10T22:00:53.187Z,4.20
2018-12-10T22:03:21.329Z,4.20
2018-12-10T22:05:49.450Z,4.20
2018-12-10T22:08:17.703Z,4.10
2018-12-10T22:10:45.832Z,4.20
2018-12-10T22:13:13.942Z,4.20
2018-12-10T22:15:42.075Z,4.20
2018-12-10T22:18:10.177Z,4.30
2018-12-10T22:20:38.314Z,4.40
2018-12-10T22:23:06.458Z,4.40
2018-12-10T22:25:34.682Z,4.50
2018-12-10T22:28:02.844Z,4.50
2018-12-10T22:30:31.006Z,4.40
2018-12-10T22:32:59.131Z,4.40
2018-12-10T22:35:27.284Z,4.50
2018-12-10T22:37:55.398Z,4.50
2018-12-10T22:40:23.658Z,4.40
2018-12-10T22:42:51.797Z,4.40
2018-12-10T22:45:19.917Z,4.30
2018-12-10T22:47:48.068Z,4.30
2018-12-10T22:50:16.206Z,4.30
2018-12-10T22:52:44.334Z,4.30
2018-12-10T22:55:12.498Z,4.30
2018-12-10T22:57:40.676Z,4.40
2018-12-10T23:00:09.484Z,4.30
2018-12-10T23:02:37.844Z,4.30
2018-12-10T23:05:06.253Z,4.20
2018-12-10T23:07:34.368Z,4.20
2018-12-10T23:10:02.590Z,4.20
2018-12-10T23:12:30.757Z,4.20
2018-12-10T23:14:58.907Z,4.10
2018-12-10T23:17:27.070Z,4.10
2018-12-10T23:19:55.186Z,4.10
2018-12-10T23:22:23.305Z,4.00
2018-12-10T23:24:51.443Z,4.00
2018-12-10T23:27:19.693Z,4.00
2018-12-10T23:29:47.810Z,4.00
2018-12-10T23:32:15.942Z,4.00
2018-12-10T23:34:44.224Z,4.00
2018-12-10T23:37:12.334Z,4.00
2018-12-10T23:39:40.472Z,4.00
2018-12-10T23:42:08.598Z,4.00
2018-12-10T23:44:42.407Z,4.10
2018-12-10T23:47:10.541Z,4.00
2018-12-10T23:49:38.650Z,4.10
2018-12-10T23:52:06.809Z,4.20
2018-12-10T23:54:34.941Z,4.10
2018-12-10T23:57:03.150Z,4.10
2018-12-10T23:59:31.285Z,4.00
